Time;durP1;ratioP1;P1;durP2;ratioP2;P2;SDS_P1;SDS_P2;PMS_P1;PMS_P2;Temp;Humidity;BMP_temperature;BMP_pressure;BME280_temperature;BME280_humidity;BME280_pressure;Samples;Min_cycle;Max_cycle;Signal;HPM_P1;HPM_P2
2023/12/22 00:00:08;;;;;;;0.10;0.10;;;3.60;99.90;;;;;;5057853;28;20014;-79
2023/12/22 00:06:11;;;;;;;0.10;0.10;;;3.60;99.90;;;;;;5065849;28;20033;-86
2023/12/22 00:08:39;;;;;;;1.37;0.23;;;3.80;99.90;;;;;;5048407;28;20097;-93
2023/12/22 00:11:43;;;;;;;3.87;0.57;;;3.90;99.90;;;;;;5057609;28;20014;-80
2023/12/22 00:14:08;;;;;;;;;;;3.90;99.90;;;;;;5075321;28;20055;-90
2023/12/22 00:16:36;;;;;;;1.33;0.30;;;4.00;99.90;;;;;;5053594;28;19897;-94
2023/12/22 00:19:02;;;;;;;3.70;0.87;;;4.00;99.90;;;;;;5039797;28;20053;-85
2023/12/22 00:21:33;;;;;;;3.97;0.63;;;4.10;99.90;;;;;;5040122;28;20048;-85
2023/12/22 00:24:27;;;;;;;1.63;0.50;;;4.20;99.90;;;;;;5050561;28;20063;-80
2023/12/22 00:27:18;;;;;;;7.73;1.07;;;4.30;99.90;;;;;;5055962;28;20041;-80
2023/12/22 00:30:07;;;;;;;9.17;1.70;;;4.50;99.90;;;;;;5064585;28;20056;-80
2023/12/22 00:33:00;;;;;;;7.83;1.20;;;4.50;99.90;;;;;;5069026;28;20025;-80
2023/12/22 00:36:07;;;;;;;10.00;1.80;;;4.50;99.90;;;;;;5049263;28;20045;-80
2023/12/22 00:38:43;;;;;;;13.10;1.83;;;4.70;99.90;;;;;;5049968;28;20029;-82
2023/12/22 00:41:14;;;;;;;18.07;2.70;;;4.60;99.90;;;;;;5050354;28;20033;-80
2023/12/22 00:46:55;;;;;;;8.40;0.90;;;4.80;99.90;;;;;;5055299;28;20018;-80
2023/12/22 00:49:51;;;;;;;8.40;1.30;;;4.80;99.90;;;;;;5052782;28;20041;-80
2023/12/22 00:55:44;;;;;;;10.93;1.93;;;4.80;99.90;;;;;;5057750;28;20029;-80
2023/12/22 00:58:22;;;;;;;;;;;;;;;;;;;;;
2023/12/22 01:03:49;;;;;;;10.87;1.77;;;4.70;99.90;;;;;;5058932;28;20045;-80
2023/12/22 01:06:36;;;;;;;15.37;3.10;;;5.00;99.90;;;;;;5058914;28;20037;-80
2023/12/22 01:09:25;;;;;;;;;;;;;;;;;;;;;
2023/12/22 01:15:34;;;;;;;8.63;1.37;;;5.00;99.90;;;;;;5053551;28;20049;-80
2023/12/22 01:18:28;;;;;;;12.13;1.70;;;5.00;99.90;;;;;;5057652;28;20033;-80
2023/12/22 01:21:15;;;;;;;26.23;2.17;;;5.00;99.90;;;;;;5077209;28;20044;-80
2023/12/22 01:23:45;;;;;;;12.40;2.70;;;5.10;99.90;;;;;;5076995;28;20029;-80
2023/12/22 01:26:22;;;;;;;10.80;1.77;;;5.10;99.90;;;;;;5080964;28;20005;-81
2023/12/22 01:29:05;;;;;;;20.87;2.47;;;5.10;99.90;;;;;;5060455;28;20033;-81
2023/12/22 01:31:46;;;;;;;;;;;;;;;;;;;;;
2023/12/22 01:34:32;;;;;;;12.60;1.60;;;5.10;99.90;;;;;;5061077;28;20049;-80
2023/12/22 01:37:39;;;;;;;;;;;;;;;;;;;;;
2023/12/22 01:43:24;;;;;;;;;;;;;;;;;;;;;
2023/12/22 01:49:01;;;;;;;11.93;1.70;;;5.20;99.90;;;;;;5064140;22;20041;-80
2023/12/22 01:51:59;;;;;;;13.03;1.87;;;5.20;99.90;;;;;;5060739;28;20009;-79
2023/12/22 01:55:04;;;;;;;;;;;;;;;;;;;;;
2023/12/22 01:57:46;;;;;;;16.00;2.50;;;5.10;99.90;;;;;;5061911;28;20045;-79
2023/12/22 02:00:27;;;;;;;;;;;;;;;;;;;;;
2023/12/22 02:03:34;;;;;;;;;;;;;;;;;;;;;
2023/12/22 02:06:49;;;;;;;22.07;2.13;;;5.10;99.90;;;;;;5063491;28;20049;-80
2023/12/22 02:09:22;;;;;;;10.17;2.20;;;5.00;99.90;;;;;;5061273;28;20128;-80
2023/12/22 02:16:08;;;;;;;;;;;;;;;;;;;;;
2023/12/22 02:18:43;;;;;;;18.63;2.30;;;4.90;99.90;;;;;;5063443;28;20038;-79
2023/12/22 02:21:12;;;;;;;15.20;2.53;;;4.90;99.90;;;;;;5061523;28;20059;-80
2023/12/22 02:24:00;;;;;;;20.17;2.57;;;4.90;99.90;;;;;;5059067;28;20036;-79
2023/12/22 02:26:57;;;;;;;;;;;;;;;;;;;;;
2023/12/22 02:29:36;;;;;;;19.97;3.40;;;4.80;99.90;;;;;;5062271;28;20052;-80
2023/12/22 02:32:37;;;;;;;13.53;3.03;;;4.90;99.90;;;;;;5059961;28;20013;-80
2023/12/22 02:44:11;;;;;;;26.60;4.37;;;5.20;99.90;;;;;;5052903;28;20048;-81
2023/12/22 02:46:46;;;;;;;18.53;3.20;;;5.20;99.90;;;;;;5051364;28;20045;-80
2023/12/22 02:49:44;;;;;;;27.07;5.47;;;5.30;99.90;;;;;;5052629;28;20014;-80
2023/12/22 02:52:11;;;;;;;23.50;2.87;;;5.20;99.90;;;;;;5050614;28;20150;-81
2023/12/22 02:54:41;;;;;;;30.57;3.90;;;5.20;99.90;;;;;;5052486;28;20022;-81
2023/12/22 02:57:10;;;;;;;27.53;3.27;;;5.30;99.90;;;;;;5052756;28;20128;-80
2023/12/22 02:59:41;;;;;;;23.83;3.40;;;5.30;99.90;;;;;;5050957;28;20033;-80
2023/12/22 03:02:12;;;;;;;17.10;2.73;;;5.40;99.90;;;;;;5051559;28;20040;-80
2023/12/22 03:04:47;;;;;;;;;;;;;;;;;;;;;
2023/12/22 03:07:30;;;;;;;27.43;3.20;;;5.20;99.90;;;;;;5053301;28;20041;-81
2023/12/22 03:10:16;;;;;;;19.83;3.00;;;5.20;99.90;;;;;;5052350;28;20049;-81
2023/12/22 03:12:42;;;;;;;11.20;2.17;;;5.30;99.90;;;;;;5049860;28;20045;-81
2023/12/22 03:15:25;;;;;;;;;;;;;;;;;;;;;
2023/12/22 03:18:13;;;;;;;17.97;2.80;;;5.20;99.90;;;;;;5054530;28;20021;-81
2023/12/22 03:20:39;;;;;;;23.70;4.77;;;5.10;99.90;;;;;;5049995;28;20022;-81
2023/12/22 03:23:12;;;;;;;26.80;5.10;;;5.20;99.90;;;;;;5052254;28;20104;-81
2023/12/22 03:25:53;;;;;;;16.83;3.23;;;5.30;99.90;;;;;;5050213;28;20021;-81
2023/12/22 03:28:35;;;;;;;19.10;2.47;;;5.10;99.90;;;;;;5051718;28;20040;-81
2023/12/22 03:31:11;;;;;;;;;;;;;;;;;;;;;
2023/12/22 03:33:40;;;;;;;17.87;3.77;;;5.00;99.90;;;;;;5049055;28;19932;-80
2023/12/22 03:36:08;;;;;;;22.93;3.30;;;5.10;99.90;;;;;;5066439;28;20021;-81
2023/12/22 03:38:46;;;;;;;;;;;;;;;;;;;;;
2023/12/22 03:41:22;;;;;;;22.70;3.63;;;5.40;99.90;;;;;;5051523;28;20274;-81
2023/12/22 03:44:32;;;;;;;31.40;4.20;;;5.60;99.90;;;;;;5108457;22;20046;-80
2023/12/22 03:46:51;;;;;;;26.67;3.47;;;5.70;99.90;;;;;;5030250;28;20326;-80
2023/12/22 03:49:24;;;;;;;28.10;4.63;;;5.60;99.90;;;;;;5031777;28;20016;-80
2023/12/22 03:51:57;;;;;;;22.90;4.27;;;5.70;99.90;;;;;;5032533;28;20010;-81
2023/12/22 03:54:33;;;;;;;21.07;3.20;;;5.80;99.90;;;;;;5030413;28;20041;-80
2023/12/22 03:57:07;;;;;;;23.30;3.97;;;5.90;99.90;;;;;;5028885;28;20041;-80
2023/12/22 03:59:35;;;;;;;17.83;3.07;;;5.90;99.90;;;;;;5029008;28;20088;-81
2023/12/22 04:04:56;;;;;;;23.47;2.73;;;6.10;99.90;;;;;;5030753;28;20030;-81
2023/12/22 04:07:24;;;;;;;15.73;2.63;;;6.00;99.90;;;;;;5027296;28;20034;-83
2023/12/22 04:10:02;;;;;;;13.57;2.30;;;6.20;99.90;;;;;;5029527;28;20080;-81
2023/12/22 04:12:35;;;;;;;15.37;2.10;;;6.10;99.90;;;;;;5030184;28;20037;-81
2023/12/22 04:15:19;;;;;;;13.53;2.50;;;6.10;99.90;;;;;;5030180;28;20026;-80
2023/12/22 04:17:50;;;;;;;12.97;2.07;;;5.90;99.90;;;;;;5029859;28;20049;-80
2023/12/22 04:20:24;;;;;;;15.07;1.80;;;6.00;99.90;;;;;;5029960;28;20025;-80
2023/12/22 04:23:17;;;;;;;13.77;2.20;;;6.00;99.90;;;;;;5022407;28;20030;-80
2023/12/22 04:25:45;;;;;;;;;;;6.00;99.90;;;;;;5029816;28;20045;-79
2023/12/22 04:28:18;;;;;;;24.80;3.67;;;6.00;99.90;;;;;;5029343;28;19901;-80
2023/12/22 04:30:44;;;;;;;18.77;2.90;;;6.00;99.90;;;;;;5031405;28;20029;-79
2023/12/22 04:33:27;;;;;;;20.93;3.07;;;6.00;99.90;;;;;;5028656;28;20021;-79
2023/12/22 04:36:02;;;;;;;16.98;3.72;;;5.90;99.90;;;;;;5029729;28;20082;-80
2023/12/22 04:38:28;;;;;;;25.90;4.20;;;6.00;99.90;;;;;;5028003;28;20033;-80
2023/12/22 04:40:56;;;;;;;24.03;3.60;;;5.80;99.90;;;;;;5030335;28;20026;-83
2023/12/22 04:43:24;;;;;;;15.83;2.40;;;6.10;99.90;;;;;;5034263;28;20010;-80
2023/12/22 04:45:50;;;;;;;11.40;2.20;;;5.90;99.90;;;;;;5036058;28;20030;-84
2023/12/22 04:48:18;;;;;;;24.00;2.87;;;6.00;99.90;;;;;;5039509;28;20020;-82
2023/12/22 04:50:47;;;;;;;23.40;3.33;;;6.10;99.90;;;;;;5040935;28;20006;-79
2023/12/22 04:53:19;;;;;;;18.63;3.07;;;6.00;99.90;;;;;;5040175;28;20022;-80
2023/12/22 04:55:47;;;;;;;20.13;2.90;;;6.00;99.90;;;;;;5041395;28;20021;-79
2023/12/22 04:58:26;;;;;;;14.70;2.87;;;6.20;99.90;;;;;;5040236;28;20094;-79
2023/12/22 05:00:57;;;;;;;17.63;2.63;;;6.30;99.90;;;;;;5040353;28;20077;-79
2023/12/22 05:03:30;;;;;;;20.20;3.13;;;6.20;99.90;;;;;;5038547;28;20017;-80
2023/12/22 05:05:59;;;;;;;16.40;2.23;;;6.20;99.90;;;;;;5039204;28;20049;-79
2023/12/22 05:08:25;;;;;;;24.10;2.90;;;6.30;99.90;;;;;;5040357;28;20009;-79
2023/12/22 05:10:55;;;;;;;15.00;3.23;;;6.40;99.90;;;;;;5040727;28;20041;-80
2023/12/22 05:13:35;;;;;;;17.07;3.03;;;6.40;99.90;;;;;;5029551;28;20025;-79
2023/12/22 05:16:24;;;;;;;21.13;3.03;;;6.30;99.90;;;;;;5039078;28;20037;-79
2023/12/22 05:18:51;;;;;;;21.53;3.30;;;6.40;99.90;;;;;;5037511;28;20037;-79
2023/12/22 05:21:27;;;;;;;15.07;3.23;;;6.60;99.90;;;;;;5040032;28;20017;-80
2023/12/22 05:24:08;;;;;;;;;;;;;;;;;;;;;
2023/12/22 05:26:34;;;;;;;26.30;3.70;;;6.40;99.90;;;;;;5041131;28;20014;-79
2023/12/22 05:29:12;;;;;;;17.77;3.37;;;6.60;99.90;;;;;;5038742;28;20089;-79
2023/12/22 05:32:00;;;;;;;13.90;2.97;;;6.70;99.90;;;;;;5040886;28;20014;-78
2023/12/22 05:34:36;;;;;;;;;;;;;;;;;;;;;
2023/12/22 05:37:07;;;;;;;16.43;2.60;;;6.90;99.90;;;;;;5035478;28;20022;-79
2023/12/22 05:39:37;;;;;;;17.10;3.20;;;6.90;99.90;;;;;;5040438;28;20002;-78
2023/12/22 05:42:12;;;;;;;14.20;2.37;;;6.90;99.90;;;;;;5038080;28;20021;-79
2023/12/22 05:45:03;;;;;;;14.97;3.20;;;7.00;99.90;;;;;;5035724;28;20040;-79
2023/12/22 05:47:31;;;;;;;19.70;2.87;;;7.10;99.90;;;;;;5040260;28;20034;-79
2023/12/22 05:50:09;;;;;;;;;;;;;;;;;;;;;
2023/12/22 05:52:35;;;;;;;20.77;2.73;;;7.10;99.90;;;;;;5041037;28;20021;-79
2023/12/22 05:55:03;;;;;;;16.63;3.27;;;7.10;99.90;;;;;;5029664;28;20033;-79
2023/12/22 05:57:54;;;;;;;;;;;;;;;;;;;;;
2023/12/22 06:00:23;;;;;;;16.57;2.70;;;7.30;99.90;;;;;;5035255;28;20010;-78
2023/12/22 06:02:51;;;;;;;21.50;3.67;;;7.40;99.90;;;;;;5026241;28;20129;-78
2023/12/22 06:05:19;;;;;;;22.37;3.53;;;7.50;99.90;;;;;;5035927;28;20024;-77
2023/12/22 06:07:44;;;;;;;27.33;3.47;;;7.50;99.90;;;;;;5039800;28;20018;-78
2023/12/22 06:10:17;;;;;;;17.20;3.13;;;7.50;99.90;;;;;;5034354;28;20086;-77
2023/12/22 06:12:47;;;;;;;19.60;4.17;;;7.40;99.90;;;;;;5036331;28;20006;-78
2023/12/22 06:15:13;;;;;;;13.67;2.77;;;7.40;99.90;;;;;;5094565;23;20034;-77
2023/12/22 06:17:39;;;;;;;14.60;2.80;;;7.40;99.90;;;;;;5035199;28;20226;-79
2023/12/22 06:20:08;;;;;;;13.93;2.53;;;7.40;99.90;;;;;;5012495;28;20041;-78
2023/12/22 06:22:33;;;;;;;16.70;2.87;;;7.60;99.90;;;;;;5012380;28;20046;-77
2023/12/22 06:25:00;;;;;;;19.87;3.20;;;7.50;99.90;;;;;;5011069;28;20031;-77
2023/12/22 06:27:26;;;;;;;16.73;2.73;;;7.60;99.90;;;;;;5025504;28;20042;-78
2023/12/22 06:30:00;;;;;;;14.67;2.50;;;7.60;99.90;;;;;;5012289;28;20073;-77
2023/12/22 06:32:44;;;;;;;18.20;2.70;;;7.50;99.90;;;;;;5025479;28;20022;-78
2023/12/22 06:35:15;;;;;;;12.20;3.33;;;7.50;99.90;;;;;;5007984;28;20062;-76
2023/12/22 06:37:43;;;;;;;15.30;3.10;;;7.50;99.90;;;;;;5011574;28;20030;-77
2023/12/22 06:40:12;;;;;;;14.67;2.53;;;7.50;99.90;;;;;;5027234;28;20041;-78
2023/12/22 06:42:42;;;;;;;21.37;4.10;;;7.50;99.90;;;;;;5012535;28;20043;-77
2023/12/22 06:45:10;;;;;;;17.33;3.57;;;7.50;99.90;;;;;;5011238;28;20034;-77
2023/12/22 06:47:36;;;;;;;14.00;4.10;;;7.50;99.90;;;;;;5019192;28;20034;-77
2023/12/22 06:50:11;;;;;;;14.80;2.23;;;7.50;99.90;;;;;;5013841;28;20022;-77
2023/12/22 06:52:39;;;;;;;9.13;1.50;;;7.50;99.90;;;;;;5018400;28;20066;-77
2023/12/22 06:55:08;;;;;;;2.73;0.87;;;7.50;99.90;;;;;;5017697;28;20053;-77
2023/12/22 06:57:36;;;;;;;6.03;0.50;;;7.40;99.90;;;;;;5018483;28;20026;-77
2023/12/22 07:00:19;;;;;;;7.57;1.10;;;7.20;99.90;;;;;;5017115;28;20014;-77
2023/12/22 07:02:45;;;;;;;4.93;1.80;;;6.90;99.90;;;;;;5010339;28;20092;-79
2023/12/22 07:05:30;;;;;;;7.00;1.53;;;6.80;99.90;;;;;;5017450;28;20106;-79
2023/12/22 07:07:58;;;;;;;8.67;1.37;;;6.90;99.90;;;;;;5023300;28;20097;-78
2023/12/22 07:10:28;;;;;;;6.83;1.33;;;6.80;99.90;;;;;;5019442;28;20043;-82
2023/12/22 07:13:01;;;;;;;14.40;1.47;;;6.80;99.90;;;;;;5015890;28;20026;-78
2023/12/22 07:15:34;;;;;;;14.10;1.50;;;6.60;99.90;;;;;;5015603;28;21053;-77
2023/12/22 07:18:02;;;;;;;10.97;2.20;;;6.80;99.90;;;;;;5027253;28;20098;-77
2023/12/22 07:20:54;;;;;;;8.10;1.87;;;6.80;99.90;;;;;;5016252;28;20041;-77
2023/12/22 07:23:23;;;;;;;13.95;2.65;;;6.70;99.90;;;;;;5017982;28;20022;-77
2023/12/22 07:25:48;;;;;;;15.47;2.70;;;6.70;99.90;;;;;;5015340;28;20022;-78
2023/12/22 07:28:19;;;;;;;19.70;3.90;;;6.80;99.90;;;;;;5017397;28;20019;-78
2023/12/22 07:30:56;;;;;;;25.60;3.30;;;6.70;99.90;;;;;;5016509;28;20025;-78
2023/12/22 07:33:27;;;;;;;25.20;3.63;;;6.70;99.90;;;;;;5014171;28;20030;-78
2023/12/22 07:35:58;;;;;;;23.80;4.63;;;6.70;99.90;;;;;;5016686;28;20042;-77
2023/12/22 07:38:26;;;;;;;24.80;4.70;;;6.60;99.90;;;;;;5018077;28;20094;-78
2023/12/22 07:40:55;;;;;;;32.27;5.13;;;6.60;99.90;;;;;;5011647;28;20049;-78
2023/12/22 07:43:23;;;;;;;42.57;5.70;;;6.60;99.90;;;;;;5015917;28;20038;-78
2023/12/22 07:45:51;;;;;;;30.03;4.70;;;6.60;99.90;;;;;;5014787;28;20025;-78
2023/12/22 07:48:22;;;;;;;27.30;4.73;;;6.50;99.90;;;;;;5024205;28;20042;-78
2023/12/22 07:50:49;;;;;;;23.23;3.87;;;6.60;99.90;;;;;;5014292;28;20041;-78
2023/12/22 07:53:15;;;;;;;36.57;6.40;;;6.50;99.90;;;;;;5013794;28;20030;-78
2023/12/22 07:55:41;;;;;;;29.90;6.17;;;6.70;99.90;;;;;;5019271;28;20034;-78
2023/12/22 07:58:19;;;;;;;;;;;;;;;;;;;;;
2023/12/22 08:00:57;;;;;;;38.50;6.00;;;6.80;99.90;;;;;;5016653;28;20071;-78
2023/12/22 08:03:24;;;;;;;45.23;6.77;;;6.90;99.90;;;;;;5016964;28;20031;-79
2023/12/22 08:05:58;;;;;;;37.83;6.13;;;7.00;99.90;;;;;;5017096;28;20117;-78
2023/12/22 08:08:29;;;;;;;27.67;6.10;;;7.00;99.90;;;;;;5012664;28;20037;-79
2023/12/22 08:11:02;;;;;;;33.73;6.10;;;7.00;99.90;;;;;;5015402;28;20081;-78
2023/12/22 08:13:50;;;;;;;31.07;5.33;;;7.00;99.90;;;;;;5017099;28;20056;-78
2023/12/22 08:16:24;;;;;;;17.33;4.27;;;6.90;99.90;;;;;;5016921;28;20040;-77
2023/12/22 08:18:50;;;;;;;27.73;4.80;;;6.90;99.90;;;;;;5013360;28;20086;-78
2023/12/22 08:21:18;;;;;;;47.03;8.60;;;6.80;99.90;;;;;;5015877;28;20025;-77
2023/12/22 08:23:46;;;;;;;47.87;10.40;;;6.80;99.90;;;;;;5018084;28;20010;-78
2023/12/22 08:26:14;;;;;;;43.47;9.63;;;6.90;99.90;;;;;;5019032;28;20021;-78
2023/12/22 08:28:45;;;;;;;54.87;11.90;;;7.00;99.90;;;;;;5014626;28;20085;-78
2023/12/22 08:31:13;;;;;;;45.10;8.57;;;7.10;99.90;;;;;;5013214;28;20033;-78
2023/12/22 08:33:51;;;;;;;46.87;8.47;;;7.20;99.90;;;;;;5017790;28;20057;-78
2023/12/22 08:36:19;;;;;;;52.80;8.93;;;7.10;99.90;;;;;;5023945;28;20089;-78
2023/12/22 08:38:57;;;;;;;;;;;;;;;;;;;;;
2023/12/22 08:41:36;;;;;;;39.03;7.07;;;7.30;99.90;;;;;;5013938;28;20049;-78
2023/12/22 08:44:05;;;;;;;53.47;8.53;;;7.30;99.90;;;;;;5009605;28;20023;-79
2023/12/22 08:46:42;;;;;;;41.40;8.77;;;7.20;99.90;;;;;;5005613;28;20094;-78
2023/12/22 08:49:21;;;;;;;45.83;7.93;;;7.20;99.90;;;;;;5009902;28;20095;-78
2023/12/22 08:51:50;;;;;;;37.13;6.40;;;7.30;99.90;;;;;;5008273;28;20015;-77
2023/12/22 08:54:31;;;;;;;41.60;6.60;;;7.30;99.90;;;;;;5009101;28;20030;-77
2023/12/22 08:57:00;;;;;;;48.50;7.30;;;7.40;99.90;;;;;;5010549;28;20086;-78
2023/12/22 09:00:01;;;;;;;50.50;7.60;;;7.40;99.90;;;;;;5011153;28;20023;-77
2023/12/22 09:02:38;;;;;;;34.03;8.00;;;7.50;99.90;;;;;;5009743;28;20163;-78
2023/12/22 09:05:14;;;;;;;35.87;6.30;;;7.40;99.90;;;;;;5020437;28;20039;-78
2023/12/22 09:07:42;;;;;;;32.60;6.27;;;7.60;99.90;;;;;;5006263;28;20026;-79
2023/12/22 09:10:12;;;;;;;44.17;7.37;;;7.70;99.90;;;;;;5009798;28;20030;-79
2023/12/22 09:12:49;;;;;;;38.43;5.63;;;7.60;99.90;;;;;;5016693;28;20070;-78
2023/12/22 09:15:27;;;;;;;29.90;6.67;;;7.60;99.90;;;;;;5022728;28;20061;-78
2023/12/22 09:17:56;;;;;;;40.23;5.60;;;7.80;99.90;;;;;;5019918;28;20034;-77
2023/12/22 09:20:24;;;;;;;24.50;5.40;;;7.80;99.90;;;;;;5005727;28;20038;-78
2023/12/22 09:25:45;;;;;;;35.67;5.40;;;7.70;99.90;;;;;;5008157;28;20018;-78
2023/12/22 09:28:21;;;;;;;;;;;;;;;;;;;;;
2023/12/22 09:30:52;;;;;;;34.73;6.07;;;7.80;99.90;;;;;;5005840;28;20057;-78
2023/12/22 09:36:23;;;;;;;;;;;;;;;;;;;;;
2023/12/22 09:38:59;;;;;;;31.57;5.13;;;8.00;99.90;;;;;;5011631;28;20038;-78
2023/12/22 09:41:48;;;;;;;26.90;5.03;;;8.00;99.90;;;;;;5024616;28;20215;-78
2023/12/22 09:44:19;;;;;;;34.23;5.60;;;8.00;99.90;;;;;;5008595;28;20026;-79
2023/12/22 09:47:08;;;;;;;27.05;4.63;;;8.10;99.90;;;;;;5012773;28;20027;-77
2023/12/22 09:49:42;;;;;;;20.57;5.77;;;8.20;99.90;;;;;;5012911;28;20042;-78
2023/12/22 09:52:20;;;;;;;20.07;3.73;;;8.20;99.90;;;;;;5011222;28;20018;-78
2023/12/22 09:55:02;;;;;;;19.00;3.87;;;8.30;99.90;;;;;;5009466;28;20110;-80
2023/12/22 09:57:33;;;;;;;22.23;3.97;;;8.30;99.90;;;;;;5023646;28;20070;-78
2023/12/22 10:00:06;;;;;;;24.20;3.45;;;8.40;99.90;;;;;;5026828;28;20053;-78
2023/12/22 10:02:43;;;;;;;21.35;3.72;;;8.40;99.90;;;;;;5020085;28;20048;-78
2023/12/22 10:05:22;;;;;;;20.63;4.03;;;8.40;99.90;;;;;;5025882;28;20011;-79
2023/12/22 10:07:53;;;;;;;19.93;3.20;;;8.40;99.90;;;;;;5009478;28;20011;-79
2023/12/22 10:10:24;;;;;;;18.67;2.43;;;8.50;99.90;;;;;;5008942;28;20017;-79
2023/12/22 10:16:00;;;;;;;10.40;2.53;;;8.30;99.90;;;;;;5007243;28;20058;-78
2023/12/22 10:18:29;;;;;;;9.90;3.53;;;8.50;99.90;;;;;;5025392;28;20023;-79
2023/12/22 10:21:01;;;;;;;15.73;2.53;;;8.50;99.90;;;;;;5011928;28;20046;-79
2023/12/22 10:23:57;;;;;;;;;;;;;;;;;;;;;
2023/12/22 10:26:53;;;;;;;12.43;1.73;;;8.40;99.90;;;;;;5012586;28;20061;-78
2023/12/22 10:29:24;;;;;;;8.27;2.07;;;8.40;99.90;;;;;;5012267;28;20010;-79
2023/12/22 10:32:02;;;;;;;;;;;;;;;;;;;;;
2023/12/22 10:34:58;;;;;;;10.53;2.60;;;8.30;99.90;;;;;;5011399;28;20042;-78
2023/12/22 10:37:26;;;;;;;6.77;2.23;;;8.30;99.90;;;;;;5011021;28;20050;-79
2023/12/22 10:40:02;;;;;;;7.47;2.73;;;8.20;99.90;;;;;;5012399;28;20014;-79
2023/12/22 10:42:36;;;;;;;9.13;2.73;;;8.10;99.90;;;;;;5014070;28;20029;-79
2023/12/22 10:45:29;;;;;;;9.57;2.53;;;8.30;99.90;;;;;;5018704;28;20037;-77
2023/12/22 10:51:44;;;;;;;9.27;3.30;;;8.40;99.90;;;;;;5082692;23;20097;-81
2023/12/22 10:54:12;;;;;;;10.20;2.30;;;8.40;99.90;;;;;;5056403;28;20045;-78
2023/12/22 10:57:10;;;;;;;11.67;2.67;;;8.30;99.90;;;;;;5059280;28;20034;-79
2023/12/22 11:00:06;;;;;;;;;;;;;;;;;;;;;
2023/12/22 11:02:34;;;;;;;6.30;2.47;;;8.20;99.90;;;;;;5059900;28;20010;-77
2023/12/22 11:05:08;;;;;;;7.30;2.80;;;8.20;99.90;;;;;;5057545;28;20528;-79
2023/12/22 11:07:40;;;;;;;5.57;2.17;;;8.30;99.90;;;;;;5059982;28;20032;-78
2023/12/22 11:10:26;;;;;;;10.70;3.17;;;8.20;99.90;;;;;;5055733;28;20018;-79
2023/12/22 11:13:03;;;;;;;;;;;;;;;;;;;;;
2023/12/22 11:15:50;;;;;;;6.90;2.47;;;8.30;99.90;;;;;;5046775;28;20042;-79
2023/12/22 11:18:18;;;;;;;7.77;2.27;;;8.30;99.90;;;;;;5052839;28;20033;-79
2023/12/22 11:21:09;;;;;;;11.87;3.40;;;8.40;99.90;;;;;;5049175;28;20018;-78
2023/12/22 11:23:37;;;;;;;7.83;3.30;;;8.50;99.90;;;;;;5056989;28;20021;-79
2023/12/22 11:26:12;;;;;;;10.70;3.33;;;8.40;99.90;;;;;;5057589;28;20014;-78
2023/12/22 11:28:43;;;;;;;11.67;2.97;;;8.60;99.90;;;;;;5058625;28;20187;-79
2023/12/22 11:31:34;;;;;;;9.50;2.80;;;8.60;99.90;;;;;;5058739;28;20036;-78
2023/12/22 11:34:29;;;;;;;16.23;3.60;;;8.60;99.90;;;;;;5054981;28;20037;-78
2023/12/22 11:40:14;;;;;;;4.23;2.73;;;8.60;99.90;;;;;;5050256;28;20022;-79
2023/12/22 11:42:58;;;;;;;;;;;;;;;;;;;;;
2023/12/22 11:45:37;;;;;;;4.33;2.73;;;8.80;99.90;;;;;;5050593;28;20025;-80
2023/12/22 11:48:24;;;;;;;;;;;;;;;;;;;;;
2023/12/22 11:51:06;;;;;;;7.77;2.50;;;8.80;99.90;;;;;;5058524;28;20022;-79
2023/12/22 11:53:32;;;;;;;11.43;3.35;;;9.00;99.90;;;;;;5048690;28;20041;-82
2023/12/22 11:56:44;;;;;;;8.60;3.53;;;8.90;99.90;;;;;;5054409;28;20029;-81
2023/12/22 12:02:02;;;;;;;5.53;2.23;;;9.00;99.90;;;;;;5070765;28;20036;-78
2023/12/22 12:04:32;;;;;;;5.83;1.60;;;9.00;99.90;;;;;;5077532;28;20037;-78
2023/12/22 12:07:31;;;;;;;;;;;;;;;;;;;;;
2023/12/22 12:10:08;;;;;;;4.07;1.90;;;9.00;99.90;;;;;;5068502;28;20032;-79
2023/12/22 12:12:34;;;;;;;3.07;1.40;;;9.20;99.90;;;;;;5081505;28;20026;-78
2023/12/22 12:15:11;;;;;;;3.67;1.63;;;9.30;99.90;;;;;;5072161;28;20027;-80
2023/12/22 12:17:41;;;;;;;6.80;2.30;;;9.30;99.90;;;;;;5076999;28;20081;-78
2023/12/22 12:20:35;;;;;;;8.37;2.20;;;9.30;99.90;;;;;;5070039;28;20037;-79
2023/12/22 12:23:50;;;;;;;5.37;1.87;;;9.20;99.90;;;;;;5091716;28;20036;-79
2023/12/22 12:26:21;;;;;;;4.53;1.90;;;9.20;99.90;;;;;;5064216;28;20033;-79
2023/12/22 12:28:50;;;;;;;5.80;1.87;;;9.10;99.90;;;;;;5070179;28;20040;-79
2023/12/22 12:31:23;;;;;;;11.77;3.47;;;9.10;99.90;;;;;;5070710;28;20017;-80
2023/12/22 12:34:03;;;;;;;7.77;2.07;;;9.10;99.90;;;;;;5071740;28;20052;-79
2023/12/22 12:36:40;;;;;;;5.87;1.90;;;9.20;99.90;;;;;;5069147;28;20032;-79
2023/12/22 12:39:17;;;;;;;6.93;2.30;;;9.20;99.90;;;;;;5070692;28;20009;-80
2023/12/22 12:41:50;;;;;;;2.63;1.40;;;9.20;99.90;;;;;;5069551;28;20748;-80
2023/12/22 12:44:37;;;;;;;7.70;2.07;;;9.30;99.90;;;;;;5070115;28;20014;-79
2023/12/22 12:47:19;;;;;;;6.20;1.67;;;9.40;99.90;;;;;;5071803;28;20055;-79
2023/12/22 12:50:12;;;;;;;;;;;;;;;;;;;;;
2023/12/22 12:52:40;;;;;;;10.50;2.20;;;9.50;99.90;;;;;;5070769;28;20041;-78
2023/12/22 12:55:13;;;;;;;6.73;1.57;;;9.50;99.90;;;;;;5075234;28;20065;-79
2023/12/22 12:57:43;;;;;;;7.87;1.90;;;9.60;99.90;;;;;;5088977;28;20032;-79
2023/12/22 13:00:13;;;;;;;7.90;2.00;;;9.60;99.90;;;;;;5077182;28;20048;-79
2023/12/22 13:02:41;;;;;;;8.47;2.03;;;9.60;99.90;;;;;;5077000;28;20089;-79
2023/12/22 13:05:29;;;;;;;;;;;;;;;;;;;;;
2023/12/22 13:08:25;;;;;;;;;;;;;;;;;;;;;
2023/12/22 13:11:18;;;;;;;6.03;1.90;;;9.60;99.90;;;;;;5081782;28;20057;-78
2023/12/22 13:13:52;;;;;;;3.95;1.05;;;9.60;99.90;;;;;;5082046;28;20100;-78
2023/12/22 13:16:38;;;;;;;2.77;1.40;;;9.70;99.90;;;;;;5081341;28;20033;-79
2023/12/22 13:19:07;;;;;;;4.73;0.77;;;9.70;99.90;;;;;;5080968;28;20033;-79
2023/12/22 13:22:10;;;;;;;4.40;0.90;;;9.70;99.90;;;;;;5091741;28;20017;-77
2023/12/22 13:24:57;;;;;;;3.27;1.40;;;9.80;99.90;;;;;;5216526;22;20101;-77
2023/12/22 13:29:55;;;;;;;9.20;1.73;;;9.70;99.90;;;;;;5054286;28;20037;-78
2023/12/22 13:32:35;;;;;;;5.40;1.40;;;9.70;99.90;;;;;;5061911;28;20030;-79
2023/12/22 13:35:01;;;;;;;6.07;1.40;;;9.80;99.90;;;;;;5054600;28;20087;-79
2023/12/22 13:37:42;;;;;;;7.17;1.57;;;9.80;99.90;;;;;;5054510;28;20018;-79
2023/12/22 13:40:48;;;;;;;4.70;1.10;;;9.80;99.90;;;;;;5055790;28;20029;-78
2023/12/22 13:43:14;;;;;;;6.77;1.87;;;9.80;99.90;;;;;;5051422;28;20030;-79
2023/12/22 13:45:52;;;;;;;;;;;;;;;;;;;;;
2023/12/22 13:48:27;;;;;;;7.00;1.33;;;9.80;99.90;;;;;;5088398;23;20053;-77
2023/12/22 13:51:08;;;;;;;10.10;1.43;;;9.80;99.90;;;;;;5065031;28;20005;-77
2023/12/22 13:53:35;;;;;;;16.30;1.97;;;9.80;99.90;;;;;;5065118;28;20028;-78
2023/12/22 13:56:21;;;;;;;4.37;1.10;;;9.80;99.90;;;;;;5063669;28;20018;-77
2023/12/22 13:58:58;;;;;;;6.03;1.10;;;9.80;99.90;;;;;;5077149;28;20080;-78
2023/12/22 14:01:23;;;;;;;9.43;2.20;;;9.80;99.90;;;;;;5075184;28;20025;-78
2023/12/22 14:03:51;;;;;;;5.83;1.83;;;9.80;99.90;;;;;;5065130;28;20029;-78
2023/12/22 14:06:19;;;;;;;7.17;1.67;;;9.80;99.90;;;;;;5061272;28;20042;-77
2023/12/22 14:09:00;;;;;;;8.10;2.03;;;9.70;99.90;;;;;;5076170;28;20064;-78
2023/12/22 14:11:33;;;;;;;5.60;1.97;;;9.60;99.90;;;;;;5063378;28;20953;-77
2023/12/22 14:14:06;;;;;;;8.93;2.10;;;9.40;99.90;;;;;;5088447;22;21853;-79
2023/12/22 14:16:35;;;;;;;10.17;2.40;;;9.10;99.90;;;;;;5046669;28;20006;-78
2023/12/22 14:19:10;;;;;;;10.30;2.87;;;9.10;99.90;;;;;;5044504;28;20129;-77
2023/12/22 14:21:39;;;;;;;8.27;1.63;;;9.20;99.90;;;;;;5044079;28;20030;-78
2023/12/22 14:24:10;;;;;;;13.47;2.97;;;9.10;99.90;;;;;;5043270;28;20087;-78
2023/12/22 14:26:57;;;;;;;10.67;2.20;;;9.10;99.90;;;;;;5056473;28;20063;-80
2023/12/22 14:29:28;;;;;;;11.27;2.30;;;9.10;99.90;;;;;;5040948;28;20066;-79
2023/12/22 14:31:56;;;;;;;8.83;2.03;;;9.10;99.90;;;;;;5042605;28;20026;-78
2023/12/22 14:34:32;;;;;;;9.33;1.77;;;9.10;99.90;;;;;;5042824;28;20064;-78
2023/12/22 14:36:59;;;;;;;10.63;2.20;;;9.10;99.90;;;;;;5042712;28;20057;-79
2023/12/22 14:39:27;;;;;;;16.70;2.23;;;9.10;99.90;;;;;;5055844;28;20085;-78
2023/12/22 14:41:55;;;;;;;8.07;2.40;;;9.10;99.90;;;;;;5036616;28;20029;-78
2023/12/22 14:44:23;;;;;;;6.23;1.67;;;9.10;99.90;;;;;;5032911;28;20029;-77
2023/12/22 14:46:53;;;;;;;16.90;2.53;;;9.10;99.90;;;;;;5033374;28;20042;-79
2023/12/22 14:49:24;;;;;;;9.90;2.43;;;9.00;99.90;;;;;;5033207;28;20013;-79
2023/12/22 14:51:53;;;;;;;6.73;1.93;;;9.10;99.90;;;;;;5032676;28;20010;-79
2023/12/22 14:54:26;;;;;;;4.93;1.73;;;9.20;99.90;;;;;;5048157;28;20094;-78
2023/12/22 14:56:54;;;;;;;;;;;9.10;99.90;;;;;;5048511;28;20018;-79
2023/12/22 14:59:30;;;;;;;6.80;2.40;;;9.10;99.90;;;;;;5048311;28;19931;-79
2023/12/22 15:02:00;;;;;;;9.63;1.30;;;9.10;99.90;;;;;;5032943;28;20025;-78
2023/12/22 15:04:38;;;;;;;7.47;1.67;;;9.00;99.90;;;;;;5032533;28;20010;-79
2023/12/22 15:07:17;;;;;;;8.90;1.67;;;9.10;99.90;;;;;;5033376;28;20042;-78
2023/12/22 15:09:44;;;;;;;10.27;1.83;;;9.10;99.90;;;;;;5032849;28;20048;-78
2023/12/22 15:12:21;;;;;;;;;;;;;;;;;;;;;
2023/12/22 15:14:53;;;;;;;11.97;2.00;;;9.00;99.90;;;;;;5031869;28;20061;-78
2023/12/22 15:17:19;;;;;;;8.65;2.35;;;8.90;99.90;;;;;;5031064;28;20022;-78